createdAt,value
2023-04-11T00:00:44.002Z,39.60
2023-04-11T00:02:35.555Z,43.60
2023-04-11T00:04:28.059Z,39.90
2023-04-11T00:06:19.535Z,46.40
2023-04-11T00:08:11.269Z,44.20
2023-04-11T00:10:03.191Z,38.90
2023-04-11T00:11:54.638Z,38.50
2023-04-11T00:13:47.750Z,36.10
2023-04-11T00:15:39.512Z,40.90
2023-04-11T00:17:31.864Z,41.60
2023-04-11T00:19:25.670Z,38.00
2023-04-11T00:21:17.687Z,30.00
2023-04-11T00:23:09.503Z,41.00
2023-04-11T00:25:01.343Z,47.00
2023-04-11T00:26:53.440Z,37.40
2023-04-11T00:28:44.859Z,26.70
2023-04-11T00:30:36.871Z,44.00
2023-04-11T00:32:28.414Z,36.50
2023-04-11T00:34:20.111Z,35.50
2023-04-11T00:36:12.152Z,43.90
2023-04-11T00:38:05.048Z,31.00
2023-04-11T00:39:56.604Z,43.80
2023-04-11T00:41:48.761Z,39.30
2023-04-11T00:43:40.601Z,42.80
2023-04-11T00:45:32.621Z,38.40
2023-04-11T00:47:24.429Z,30.40
2023-04-11T00:49:16.116Z,27.20
2023-04-11T00:51:07.860Z,46.00
2023-04-11T00:52:59.812Z,35.70
2023-04-11T00:54:51.828Z,33.60
2023-04-11T00:56:43.511Z,25.90
2023-04-11T00:58:37.507Z,28.50
2023-04-11T01:00:30.000Z,35.70
2023-04-11T01:02:21.898Z,39.40
2023-04-11T01:04:13.739Z,38.00
2023-04-11T01:06:07.055Z,31.00
2023-04-11T01:07:59.914Z,37.30
2023-04-11T01:11:43.865Z,30.70
2023-04-11T01:13:38.222Z,37.80
2023-04-11T01:15:30.339Z,38.20
2023-04-11T01:17:22.118Z,38.00
2023-04-11T01:19:19.638Z,33.70
2023-04-11T01:21:11.564Z,32.10
2023-04-11T01:23:03.401Z,42.60
2023-04-11T01:24:55.018Z,36.10
2023-04-11T01:26:46.457Z,30.80
2023-04-11T01:28:38.133Z,34.90
2023-04-11T01:30:30.192Z,39.60
2023-04-11T01:32:21.942Z,37.00
2023-04-11T01:34:14.904Z,39.20
2023-04-11T01:36:07.809Z,34.30
2023-04-11T01:37:59.317Z,31.10
2023-04-11T01:39:51.385Z,40.90
2023-04-11T01:41:43.990Z,35.40
2023-04-11T01:43:35.811Z,40.20
2023-04-11T01:45:28.402Z,22.10
2023-04-11T01:47:19.945Z,43.30
2023-04-11T01:49:15.767Z,39.00
2023-04-11T01:51:07.556Z,38.90
2023-04-11T01:52:59.138Z,29.20
2023-04-11T01:54:50.527Z,37.30
2023-04-11T01:56:42.423Z,36.30
2023-04-11T01:58:36.636Z,28.60
2023-04-11T02:00:28.485Z,31.40
2023-04-11T02:02:20.207Z,31.80
2023-04-11T02:04:12.006Z,17.70
2023-04-11T02:06:04.098Z,30.50
2023-04-11T02:07:55.994Z,27.70
2023-04-11T02:09:47.476Z,33.60
2023-04-11T02:11:39.462Z,34.40
2023-04-11T02:13:31.012Z,25.90
2023-04-11T02:15:22.328Z,34.10
2023-04-11T02:17:14.191Z,36.00
2023-04-11T02:19:05.880Z,26.20
2023-04-11T02:20:57.149Z,35.80
2023-04-11T02:22:49.171Z,39.00
2023-04-11T02:24:40.963Z,29.30
2023-04-11T02:26:32.779Z,33.20
2023-04-11T02:28:24.555Z,32.00
2023-04-11T02:30:16.289Z,32.80
2023-04-11T02:32:08.318Z,35.70
2023-04-11T02:34:00.247Z,35.10
2023-04-11T02:35:52.231Z,58.60
2023-04-11T02:37:43.823Z,75.20
2023-04-11T02:39:35.761Z,57.20
2023-04-11T02:41:27.597Z,50.30
2023-04-11T02:43:19.213Z,47.90
2023-04-11T02:45:11.922Z,42.60
2023-04-11T02:47:03.782Z,43.70
2023-04-11T02:48:56.086Z,46.80
2023-04-11T02:50:48.222Z,42.40
2023-04-11T02:52:42.283Z,41.20
2023-04-11T02:54:34.003Z,33.40
2023-04-11T02:56:25.971Z,35.10
2023-04-11T02:58:20.162Z,53.70
2023-04-11T03:00:12.353Z,43.50
2023-04-11T03:02:04.359Z,50.50
2023-04-11T03:03:55.918Z,58.10
2023-04-11T03:05:47.683Z,52.40
2023-04-11T03:07:40.730Z,40.80
2023-04-11T03:09:32.416Z,39.10
2023-04-11T03:11:24.539Z,31.00
2023-04-11T03:13:16.170Z,37.40
2023-04-11T03:15:08.811Z,37.80
2023-04-11T03:17:00.202Z,36.40
2023-04-11T03:18:51.687Z,38.60
2023-04-11T03:20:43.619Z,47.80
2023-04-11T03:22:35.238Z,37.90
2023-04-11T03:24:26.991Z,38.40
2023-04-11T03:26:19.103Z,39.20
2023-04-11T03:28:11.360Z,39.10
2023-04-11T03:30:03.846Z,36.30
2023-04-11T03:31:55.649Z,35.30
2023-04-11T03:33:47.277Z,33.40
2023-04-11T03:35:39.080Z,27.10
2023-04-11T03:37:30.509Z,34.60
2023-04-11T03:39:22.480Z,29.40
2023-04-11T03:41:14.520Z,28.80
2023-04-11T03:43:06.500Z,38.90
2023-04-11T03:44:58.320Z,32.30
2023-04-11T03:46:50.243Z,27.80
2023-04-11T03:48:41.939Z,30.60
2023-04-11T03:50:33.520Z,36.70
2023-04-11T03:52:25.181Z,35.00
2023-04-11T03:54:18.208Z,35.20
2023-04-11T03:56:10.639Z,29.10
2023-04-11T03:58:02.444Z,28.90
2023-04-11T03:59:56.787Z,32.90
2023-04-11T04:01:48.544Z,36.90
2023-04-11T04:03:40.450Z,35.90
2023-04-11T04:05:32.638Z,32.80
2023-04-11T04:07:25.440Z,31.50
2023-04-11T04:11:08.732Z,34.10
2023-04-11T04:13:00.151Z,35.20
2023-04-11T04:14:52.523Z,32.80
2023-04-11T04:16:44.683Z,36.90
2023-04-11T04:18:36.230Z,39.30
2023-04-11T04:20:27.966Z,38.30
2023-04-11T04:22:19.590Z,35.20
2023-04-11T04:24:12.335Z,39.00
2023-04-11T04:26:04.276Z,38.00
2023-04-11T04:27:58.303Z,36.40
2023-04-11T04:29:56.911Z,42.70
2023-04-11T04:31:57.093Z,35.80
2023-04-11T04:33:50.209Z,37.20
2023-04-11T04:35:42.128Z,38.20
2023-04-11T04:37:33.920Z,41.30
2023-04-11T04:39:25.571Z,37.00
2023-04-11T04:41:28.784Z,36.30
2023-04-11T04:43:23.080Z,36.00
2023-04-11T04:45:14.454Z,34.60
2023-04-11T04:47:06.015Z,34.70
2023-04-11T04:48:57.403Z,39.50
2023-04-11T04:50:48.844Z,28.40
2023-04-11T04:52:41.140Z,31.90
2023-04-11T04:54:32.985Z,37.20
2023-04-11T04:56:24.437Z,34.70
2023-04-11T04:58:16.297Z,29.60
2023-04-11T05:00:09.803Z,33.50
2023-04-11T05:02:01.401Z,27.40
2023-04-11T05:04:00.217Z,30.30
2023-04-11T05:05:52.255Z,34.70
2023-04-11T05:07:50.569Z,38.30
2023-04-11T05:09:42.448Z,35.00
2023-04-11T05:11:34.487Z,33.00
2023-04-11T05:13:25.955Z,27.60
2023-04-11T05:15:17.849Z,27.40
2023-04-11T05:17:10.091Z,28.10
2023-04-11T05:19:01.999Z,38.40
2023-04-11T05:20:53.639Z,34.70
2023-04-11T05:22:45.405Z,35.40
2023-04-11T05:24:37.493Z,22.70
2023-04-11T05:26:29.300Z,32.30
2023-04-11T05:28:21.465Z,26.40
2023-04-11T05:30:13.455Z,24.50
2023-04-11T05:32:05.037Z,30.70
2023-04-11T05:33:58.076Z,30.50
2023-04-11T05:35:51.312Z,38.20
2023-04-11T05:39:37.257Z,27.00
2023-04-11T05:41:35.570Z,32.90
2023-04-11T05:43:27.157Z,30.90
2023-04-11T05:45:18.773Z,33.80
2023-04-11T05:47:11.921Z,33.20
2023-04-11T05:49:03.814Z,34.70
2023-04-11T05:50:56.762Z,33.10
2023-04-11T05:52:48.283Z,25.10
2023-04-11T05:54:40.308Z,35.10
2023-04-11T05:56:32.098Z,23.20
2023-04-11T05:58:24.784Z,33.40
2023-04-11T06:00:17.326Z,24.40
2023-04-11T06:02:09.177Z,29.60
2023-04-11T06:04:01.362Z,31.10
2023-04-11T06:05:54.446Z,32.50
2023-04-11T06:09:39.466Z,31.80
2023-04-11T06:11:31.169Z,30.70
2023-04-11T06:13:22.582Z,23.40
2023-04-11T06:15:14.410Z,23.30
2023-04-11T06:17:06.128Z,25.10
2023-04-11T06:18:57.852Z,26.40
2023-04-11T06:20:49.936Z,31.00
2023-04-11T06:22:41.794Z,28.30
2023-04-11T06:24:40.725Z,30.90
2023-04-11T06:26:32.075Z,30.00
2023-04-11T06:28:23.697Z,22.80
2023-04-11T06:30:15.746Z,28.40
2023-04-11T06:32:08.343Z,22.00
2023-04-11T06:34:02.692Z,24.70
2023-04-11T06:35:54.696Z,23.00
2023-04-11T06:37:46.593Z,29.00
2023-04-11T06:39:38.409Z,30.40
2023-04-11T06:41:29.988Z,24.60
2023-04-11T06:43:22.365Z,24.90
2023-04-11T06:45:14.083Z,18.60
2023-04-11T06:47:05.607Z,24.70
2023-04-11T06:48:57.078Z,32.30
2023-04-11T06:50:48.732Z,17.60
2023-04-11T06:52:40.455Z,14.20
2023-04-11T06:54:32.373Z,21.30
2023-04-11T06:56:23.702Z,25.30
2023-04-11T06:58:16.439Z,23.80
2023-04-11T07:00:08.893Z,29.40
2023-04-11T07:03:55.698Z,24.90
2023-04-11T07:05:47.639Z,27.10
2023-04-11T07:07:39.886Z,27.70
2023-04-11T07:09:32.047Z,24.50
2023-04-11T07:11:23.966Z,27.40
2023-04-11T07:13:15.910Z,21.30
2023-04-11T07:15:08.976Z,24.90
2023-04-11T07:17:01.505Z,30.90
2023-04-11T07:18:54.223Z,31.60
2023-04-11T07:20:46.442Z,19.40
2023-04-11T07:22:38.009Z,28.00
2023-04-11T07:24:30.643Z,24.70
2023-04-11T07:26:23.774Z,29.30
2023-04-11T07:28:15.541Z,28.00
2023-04-11T07:30:08.217Z,27.00
2023-04-11T07:31:59.942Z,24.50
2023-04-11T07:33:52.041Z,25.50
2023-04-11T07:35:43.935Z,20.60
2023-04-11T07:37:35.668Z,20.40
2023-04-11T07:39:27.789Z,30.60
2023-04-11T07:41:19.636Z,23.70
2023-04-11T07:43:11.506Z,24.20
2023-04-11T07:45:03.222Z,23.70
2023-04-11T07:46:54.619Z,26.00
2023-04-11T07:48:46.631Z,22.20
2023-04-11T07:50:38.461Z,17.10
2023-04-11T07:52:30.163Z,21.10
2023-04-11T07:54:21.828Z,29.00
2023-04-11T07:56:15.160Z,28.70
2023-04-11T07:58:07.372Z,26.10
2023-04-11T07:59:59.652Z,18.60
2023-04-11T08:02:05.024Z,27.80
2023-04-11T08:03:57.365Z,17.00
2023-04-11T08:05:49.813Z,23.90
2023-04-11T08:07:42.075Z,22.20
2023-04-11T08:09:34.423Z,19.00
2023-04-11T08:11:25.999Z,19.40
2023-04-11T08:13:17.658Z,12.60
2023-04-11T08:15:10.717Z,24.40
2023-04-11T08:17:02.698Z,18.20
2023-04-11T08:18:54.220Z,23.70
2023-04-11T08:20:45.837Z,22.50
2023-04-11T08:22:58.897Z,10.10
2023-04-11T08:24:52.853Z,18.30
2023-04-11T08:26:44.666Z,15.30
2023-04-11T08:28:36.314Z,21.50
2023-04-11T08:30:27.928Z,17.90
2023-04-11T08:32:19.697Z,16.50
2023-04-11T08:34:12.505Z,13.90
2023-04-11T08:36:05.434Z,21.20
2023-04-11T08:37:56.945Z,18.20
2023-04-11T08:39:48.855Z,23.10
2023-04-11T08:41:40.584Z,17.80
2023-04-11T08:43:36.701Z,18.80
2023-04-11T08:45:29.158Z,11.30
2023-04-11T08:47:21.838Z,19.20
2023-04-11T08:49:13.439Z,15.00
2023-04-11T08:51:06.088Z,19.00
2023-04-11T08:53:03.824Z,21.40
2023-04-11T08:54:55.394Z,20.30
2023-04-11T08:56:48.106Z,17.90
2023-04-11T09:00:33.132Z,22.10
2023-04-11T09:02:25.161Z,18.80
2023-04-11T09:04:16.898Z,16.40
2023-04-11T09:06:11.679Z,18.40
2023-04-11T09:08:08.408Z,18.20
2023-04-11T09:10:18.096Z,19.70
2023-04-11T09:12:09.847Z,19.00
2023-04-11T09:14:06.884Z,16.70
2023-04-11T09:16:14.650Z,19.10
2023-04-11T09:18:06.175Z,12.30
2023-04-11T09:20:16.939Z,18.10
2023-04-11T09:22:09.096Z,17.10
2023-04-11T09:24:15.406Z,20.10
2023-04-11T09:26:08.382Z,18.80
2023-04-11T09:28:10.442Z,15.70
2023-04-11T09:30:02.272Z,13.50
2023-04-11T09:31:54.068Z,12.30
2023-04-11T09:34:03.430Z,11.10
2023-04-11T09:35:56.788Z,13.50
2023-04-11T09:37:50.905Z,14.50
2023-04-11T09:39:43.828Z,23.30
2023-04-11T09:43:28.289Z,15.50
2023-04-11T09:45:21.900Z,14.30
2023-04-11T09:47:13.721Z,15.80
2023-04-11T09:49:05.565Z,16.40
2023-04-11T09:50:58.817Z,18.70
2023-04-11T09:52:52.881Z,13.90
2023-04-11T09:54:45.024Z,19.00
2023-04-11T09:56:36.714Z,20.30
2023-04-11T09:58:31.458Z,19.70
2023-04-11T10:00:30.240Z,18.70
2023-04-11T10:02:22.090Z,22.80
2023-04-11T10:04:14.505Z,20.30
2023-04-11T10:06:14.299Z,11.40
2023-04-11T10:08:12.451Z,12.60
2023-04-11T10:10:04.377Z,13.40
2023-04-11T10:11:55.853Z,11.70
2023-04-11T10:13:49.477Z,14.40
2023-04-11T10:16:16.406Z,10.90
2023-04-11T10:18:10.289Z,18.80
2023-04-11T10:20:01.751Z,11.50
2023-04-11T10:21:53.294Z,15.00
2023-04-11T10:24:17.130Z,15.80
2023-04-11T10:26:10.055Z,14.40
2023-04-11T10:28:03.978Z,13.00
2023-04-11T10:29:55.874Z,14.90
2023-04-11T10:32:17.526Z,14.20
2023-04-11T10:34:14.500Z,10.30
2023-04-11T10:36:10.248Z,11.40
2023-04-11T10:38:02.557Z,18.10
2023-04-11T10:39:54.524Z,10.50
2023-04-11T10:41:46.429Z,11.10
2023-04-11T10:43:39.229Z,10.50
2023-04-11T10:45:30.995Z,9.00
2023-04-11T10:47:26.168Z,11.30
2023-04-11T10:49:35.074Z,8.30
2023-04-11T10:51:27.849Z,9.90
2023-04-11T10:53:37.068Z,12.80
2023-04-11T11:20:20.179Z,5.50
2023-04-11T11:22:29.904Z,4.80
2023-04-11T11:24:27.391Z,3.60
2023-04-11T11:26:18.848Z,5.20
2023-04-11T11:28:10.581Z,2.90
2023-04-11T11:30:11.809Z,2.90
2023-04-11T11:32:04.736Z,3.60
2023-04-11T11:34:04.695Z,7.70
2023-04-11T11:36:05.820Z,2.50
2023-04-11T11:37:57.370Z,4.30
2023-04-11T11:39:50.046Z,4.40
2023-04-11T11:43:37.096Z,4.00
2023-04-11T11:45:28.744Z,6.10
2023-04-11T11:47:19.860Z,3.80
2023-04-11T11:49:11.333Z,3.30
2023-04-11T11:51:02.696Z,5.10
2023-04-11T11:52:54.688Z,3.50
2023-04-11T11:54:47.397Z,3.70
2023-04-11T11:56:40.036Z,6.60
2023-04-11T12:00:27.574Z,4.50
2023-04-11T12:02:19.070Z,5.20
2023-04-11T12:04:13.218Z,3.70
2023-04-11T12:06:09.157Z,9.60
2023-04-11T12:08:04.676Z,8.30
2023-04-11T12:10:06.446Z,6.80
2023-04-11T12:11:57.914Z,4.60
2023-04-11T12:13:53.291Z,3.40
2023-04-11T12:15:49.080Z,3.10
2023-04-11T12:17:41.469Z,3.60
2023-04-11T12:19:33.441Z,3.90
2023-04-11T12:21:25.368Z,4.00
2023-04-11T12:23:17.691Z,6.50
2023-04-11T12:25:11.848Z,3.40
2023-04-11T12:27:07.451Z,6.50
2023-04-11T12:29:02.193Z,4.30
2023-04-11T12:30:53.747Z,3.80
2023-04-11T12:32:45.586Z,4.80
2023-04-11T12:34:37.153Z,6.90
2023-04-11T12:36:29.669Z,6.40
2023-04-11T12:40:13.375Z,8.40
2023-04-11T12:42:04.984Z,10.90
2023-04-11T12:43:56.577Z,12.60
2023-04-11T12:45:48.673Z,9.60
2023-04-11T12:47:41.073Z,8.80
2023-04-11T12:49:32.867Z,10.40
2023-04-11T12:51:24.544Z,5.80
2023-04-11T12:53:15.835Z,5.20
2023-04-11T12:55:08.803Z,6.10
2023-04-11T12:57:00.520Z,4.90
2023-04-11T12:58:52.363Z,4.70
2023-04-11T13:00:43.978Z,6.20
2023-04-11T13:02:43.260Z,5.40
2023-04-11T13:04:36.551Z,5.60
2023-04-11T13:06:28.826Z,6.10
2023-04-11T13:08:21.387Z,6.40
2023-04-11T13:10:16.692Z,5.50
2023-04-11T13:12:08.216Z,5.80
2023-04-11T13:13:59.857Z,6.40
2023-04-11T13:15:51.778Z,6.20
2023-04-11T13:17:43.840Z,7.50
2023-04-11T13:19:35.556Z,5.40
2023-04-11T13:21:27.020Z,4.20
2023-04-11T13:23:19.818Z,3.70
2023-04-11T13:25:12.470Z,4.30
2023-04-11T13:27:04.293Z,6.90
2023-04-11T13:28:56.324Z,6.70
2023-04-11T13:30:48.020Z,4.70
2023-04-11T13:32:39.448Z,3.90
2023-04-11T13:34:31.479Z,5.40
2023-04-11T13:36:23.440Z,3.60
2023-04-11T13:38:15.246Z,4.70
2023-04-11T13:40:08.713Z,3.80
2023-04-11T13:42:00.672Z,3.50
2023-04-11T13:43:52.948Z,3.40
2023-04-11T13:45:44.555Z,3.70
2023-04-11T13:47:38.420Z,3.70
2023-04-11T13:49:30.619Z,3.60
2023-04-11T13:51:21.965Z,3.20
2023-04-11T13:53:13.853Z,3.80
2023-04-11T13:55:06.350Z,6.10
2023-04-11T13:56:59.221Z,4.50
2023-04-11T13:58:51.666Z,4.20
2023-04-11T14:00:46.976Z,2.40
2023-04-11T14:02:40.273Z,4.80
2023-04-11T14:04:32.577Z,4.20
2023-04-11T14:06:24.336Z,2.70
2023-04-11T14:08:16.093Z,3.80
2023-04-11T14:10:08.083Z,5.10
2023-04-11T14:12:00.036Z,5.90
2023-04-11T14:13:51.584Z,2.70
2023-04-11T14:15:42.886Z,3.10
2023-04-11T14:17:34.760Z,3.80
2023-04-11T14:19:26.583Z,5.50
2023-04-11T14:21:18.086Z,4.80
2023-04-11T14:23:10.823Z,5.80
2023-04-11T14:25:02.334Z,4.80
2023-04-11T14:26:54.032Z,5.60
2023-04-11T14:28:45.874Z,4.60
2023-04-11T14:30:37.800Z,5.80
2023-04-11T14:32:29.515Z,4.80
2023-04-11T14:34:21.176Z,7.00
2023-04-11T14:36:12.721Z,8.80
2023-04-11T14:38:04.640Z,13.90
2023-04-11T14:39:55.824Z,5.40
2023-04-11T14:41:48.107Z,6.90
2023-04-11T14:43:39.660Z,5.30
2023-04-11T14:45:30.984Z,6.50
2023-04-11T14:47:22.996Z,7.00
2023-04-11T14:49:15.483Z,9.70
2023-04-11T14:51:07.427Z,7.50
2023-04-11T14:52:59.287Z,7.00
2023-04-11T14:54:51.124Z,5.10
2023-04-11T14:56:42.911Z,3.80
2023-04-11T14:58:34.839Z,4.20
2023-04-11T15:00:26.973Z,10.60
2023-04-11T15:02:19.030Z,9.80
2023-04-11T15:04:11.063Z,7.40
2023-04-11T15:06:02.863Z,5.70
2023-04-11T15:07:54.698Z,9.60
2023-04-11T15:09:47.102Z,7.60
2023-04-11T15:11:38.496Z,6.50
2023-04-11T15:13:30.567Z,6.40
2023-04-11T15:15:22.598Z,5.70
2023-04-11T15:17:14.411Z,8.80
2023-04-11T15:19:06.430Z,7.50
2023-04-11T15:21:03.306Z,6.90
2023-04-11T15:22:55.292Z,11.40
2023-04-11T15:24:47.349Z,8.90
2023-04-11T15:26:42.977Z,4.40
2023-04-11T15:28:38.922Z,5.50
2023-04-11T15:30:30.654Z,4.10
2023-04-11T15:32:22.196Z,5.60
2023-04-11T15:34:16.861Z,8.30
2023-04-11T15:36:08.912Z,5.70
2023-04-11T15:38:00.613Z,4.90
2023-04-11T15:39:52.750Z,5.10
2023-04-11T15:41:44.029Z,5.80
2023-04-11T15:43:35.778Z,4.50
2023-04-11T15:45:27.392Z,3.00
2023-04-11T15:47:19.000Z,3.30
2023-04-11T15:49:10.576Z,6.90
2023-04-11T15:51:09.079Z,4.60
2023-04-11T15:53:01.048Z,4.60
2023-04-11T15:54:52.921Z,2.20
2023-04-11T15:56:44.537Z,2.90
2023-04-11T15:58:36.794Z,4.40
2023-04-11T16:00:28.607Z,5.80
2023-04-11T16:02:20.717Z,3.50
2023-04-11T16:04:12.822Z,6.30
2023-04-11T16:06:05.907Z,7.90
2023-04-11T16:07:58.803Z,7.80
2023-04-11T16:09:50.521Z,7.20
2023-04-11T16:11:44.690Z,7.80
2023-04-11T16:13:36.431Z,5.90
2023-04-11T16:15:28.295Z,3.50
2023-04-11T16:17:20.619Z,2.80
2023-04-11T16:19:12.333Z,3.20
2023-04-11T16:21:04.423Z,5.40
2023-04-11T16:22:56.080Z,5.90
2023-04-11T16:24:47.717Z,2.60
2023-04-11T16:26:39.130Z,5.40
2023-04-11T16:28:30.709Z,3.80
2023-04-11T16:30:22.281Z,4.00
2023-04-11T16:32:14.026Z,4.30
2023-04-11T16:34:05.819Z,3.60
2023-04-11T16:35:57.671Z,3.80
2023-04-11T16:37:49.402Z,2.30
2023-04-11T16:39:40.997Z,3.20
2023-04-11T16:45:00.758Z,2.50
2023-04-11T16:46:52.119Z,7.00
2023-04-11T16:48:43.939Z,9.40
2023-04-11T16:50:36.267Z,10.50
2023-04-11T16:52:28.334Z,3.40
2023-04-11T16:54:20.129Z,4.30
2023-04-11T16:56:15.067Z,2.80
2023-04-11T16:58:08.892Z,2.60
2023-04-11T17:00:01.065Z,11.20
2023-04-11T17:02:01.550Z,2.60
2023-04-11T17:04:09.735Z,4.20
2023-04-11T17:06:02.663Z,2.70
2023-04-11T17:07:54.509Z,2.80
2023-04-11T17:09:47.616Z,7.80
2023-04-11T17:11:39.941Z,7.40
2023-04-11T17:13:31.405Z,4.60
2023-04-11T17:15:23.317Z,3.90
2023-04-11T17:17:15.616Z,3.70
2023-04-11T17:19:07.748Z,2.00
2023-04-11T17:20:59.756Z,5.10
2023-04-11T17:22:51.683Z,3.60
2023-04-11T17:24:43.763Z,3.90
2023-04-11T17:26:36.227Z,5.50
2023-04-11T17:28:32.176Z,7.60
2023-04-11T17:30:23.988Z,10.20
2023-04-11T17:32:16.137Z,5.00
2023-04-11T17:34:08.143Z,5.30
2023-04-11T17:36:00.709Z,7.40
2023-04-11T17:37:52.477Z,7.70
2023-04-11T17:41:37.667Z,4.80
2023-04-11T17:43:29.872Z,4.20
2023-04-11T17:45:22.445Z,8.90
2023-04-11T17:47:14.216Z,4.40
2023-04-11T17:49:06.464Z,9.40
2023-04-11T17:50:59.930Z,5.90
2023-04-11T17:52:52.257Z,6.30
2023-04-11T17:54:44.204Z,3.50
2023-04-11T17:56:36.557Z,4.30
2023-04-11T17:58:28.627Z,6.00
2023-04-11T18:00:22.964Z,5.80
2023-04-11T18:02:15.369Z,5.30
2023-04-11T18:04:09.582Z,2.60
2023-04-11T18:06:01.484Z,3.00
2023-04-11T18:08:02.638Z,1.90
2023-04-11T18:09:54.560Z,0.60
2023-04-11T18:11:46.462Z,2.30
2023-04-11T18:13:38.424Z,2.50
2023-04-11T18:15:36.598Z,1.50
2023-04-11T18:17:30.684Z,2.50
2023-04-11T18:19:27.492Z,1.30
2023-04-11T18:21:23.900Z,2.00
2023-04-11T18:23:16.089Z,1.70
2023-04-11T18:25:12.201Z,1.50
2023-04-11T18:27:03.987Z,1.40
2023-04-11T18:28:55.966Z,2.50
2023-04-11T18:30:47.703Z,3.60
2023-04-11T18:32:45.060Z,3.50
2023-04-11T18:34:40.832Z,2.70
2023-04-11T18:36:32.961Z,2.90
2023-04-11T18:38:25.725Z,2.40
2023-04-11T18:40:18.248Z,3.00
2023-04-11T18:42:10.842Z,1.10
2023-04-11T18:44:03.518Z,1.00
2023-04-11T18:45:57.611Z,3.30
2023-04-11T18:47:51.147Z,3.10
2023-04-11T18:49:43.472Z,4.90
2023-04-11T18:51:35.971Z,10.00
2023-04-11T18:53:30.277Z,5.60
2023-04-11T18:55:22.712Z,3.70
2023-04-11T18:57:15.786Z,2.70
2023-04-11T18:59:09.969Z,2.00
2023-04-11T19:01:14.621Z,2.30
2023-04-11T19:03:16.117Z,5.00
2023-04-11T19:05:13.720Z,5.50
2023-04-11T19:07:06.101Z,9.40
2023-04-11T19:08:57.749Z,9.90
2023-04-11T19:10:52.258Z,7.60
2023-04-11T19:12:46.022Z,5.70
2023-04-11T19:14:37.767Z,5.80
2023-04-11T19:16:30.705Z,6.10
2023-04-11T19:18:22.830Z,5.80
2023-04-11T19:20:15.984Z,11.10
2023-04-11T19:22:07.637Z,10.70
2023-04-11T19:24:00.121Z,10.70
2023-04-11T19:25:52.365Z,6.70
2023-04-11T19:28:04.351Z,5.80
2023-04-11T19:29:57.732Z,8.60
2023-04-11T19:31:51.671Z,4.90
2023-04-11T19:33:43.405Z,6.70
2023-04-11T19:35:55.302Z,7.50
2023-04-11T19:37:47.191Z,4.20
2023-04-11T19:39:39.291Z,7.30
2023-04-11T19:41:31.376Z,14.50
2023-04-11T19:43:23.394Z,7.90
2023-04-11T19:45:15.134Z,3.90
2023-04-11T19:47:06.899Z,7.10
2023-04-11T19:48:58.426Z,6.60
2023-04-11T19:50:51.851Z,8.10
2023-04-11T19:52:43.914Z,10.50
2023-04-11T19:54:37.141Z,7.80
2023-04-11T19:56:28.771Z,7.10
2023-04-11T19:58:21.444Z,3.90
2023-04-11T20:00:14.446Z,6.40
2023-04-11T20:02:06.225Z,5.70
2023-04-11T20:03:58.343Z,7.80
2023-04-11T20:05:50.223Z,7.90
2023-04-11T20:07:44.064Z,5.50
2023-04-11T20:09:36.772Z,7.00
2023-04-11T20:11:29.251Z,4.80
2023-04-11T20:13:21.543Z,5.10
2023-04-11T20:15:13.256Z,5.90
2023-04-11T20:17:06.161Z,6.90
2023-04-11T20:18:57.767Z,7.70
2023-04-11T20:20:49.652Z,7.10
2023-04-11T20:22:41.235Z,5.60
2023-04-11T20:24:33.490Z,4.90
2023-04-11T20:26:24.953Z,6.20
2023-04-11T20:28:16.953Z,5.10
2023-04-11T20:30:12.245Z,3.90
2023-04-11T20:32:03.661Z,6.60
2023-04-11T20:33:55.654Z,4.40
2023-04-11T20:35:47.735Z,4.30
2023-04-11T20:37:40.337Z,6.40
2023-04-11T20:39:32.467Z,6.50
2023-04-11T20:41:24.566Z,6.70
2023-04-11T20:43:17.643Z,7.40
2023-04-11T20:45:13.608Z,6.20
2023-04-11T20:47:05.155Z,7.70
2023-04-11T20:48:57.000Z,10.30
2023-04-11T20:50:48.533Z,8.60
2023-04-11T20:52:41.941Z,13.70
2023-04-11T20:54:33.529Z,19.80
2023-04-11T20:56:25.381Z,12.50
2023-04-11T20:58:20.833Z,15.40
2023-04-11T21:00:14.457Z,7.10
2023-04-11T21:02:07.371Z,17.90
2023-04-11T21:04:03.467Z,14.90
2023-04-11T21:05:55.424Z,12.80
2023-04-11T21:07:47.417Z,8.40
2023-04-11T21:09:39.088Z,8.80
2023-04-11T21:11:30.988Z,15.60
2023-04-11T21:13:22.177Z,17.20
2023-04-11T21:15:13.786Z,26.20
2023-04-11T21:17:07.863Z,27.70
2023-04-11T21:18:58.960Z,14.10
2023-04-11T21:20:50.673Z,17.30
2023-04-11T21:22:42.135Z,19.10
2023-04-11T21:24:34.931Z,24.90
2023-04-11T21:26:26.236Z,29.80
2023-04-11T21:28:17.227Z,16.00
2023-04-11T21:30:09.643Z,11.20
2023-04-11T21:32:01.435Z,9.60
2023-04-11T21:33:53.230Z,8.90
2023-04-11T21:35:45.110Z,9.90
2023-04-11T21:37:36.648Z,12.70
2023-04-11T21:39:28.212Z,10.50
2023-04-11T21:41:19.884Z,11.50
2023-04-11T21:43:11.497Z,15.20
2023-04-11T21:45:03.002Z,9.30
2023-04-11T21:46:54.243Z,7.20
2023-04-11T21:48:45.680Z,11.60
2023-04-11T21:50:37.457Z,9.30
2023-04-11T21:52:29.016Z,7.00
2023-04-11T21:54:20.107Z,10.60
2023-04-11T21:56:11.328Z,9.40
2023-04-11T21:58:02.729Z,8.40
2023-04-11T21:59:53.873Z,9.40
2023-04-11T22:01:47.994Z,11.60
2023-04-11T22:03:42.719Z,10.50
2023-04-11T22:05:34.045Z,12.90
2023-04-11T22:07:25.257Z,13.30
2023-04-11T22:09:19.017Z,20.50
2023-04-11T22:11:14.089Z,20.40
2023-04-11T22:13:05.624Z,37.50
2023-04-11T22:14:57.161Z,22.50
2023-04-11T22:16:49.307Z,16.70
2023-04-11T22:18:47.120Z,9.60
2023-04-11T22:20:40.652Z,9.10
2023-04-11T22:22:32.336Z,12.50
2023-04-11T22:24:30.258Z,13.80
2023-04-11T22:26:34.254Z,8.90
2023-04-11T22:28:26.287Z,12.20
2023-04-11T22:30:17.727Z,9.30
2023-04-11T22:32:09.137Z,9.90
2023-04-11T22:34:03.967Z,6.20
2023-04-11T22:35:58.321Z,11.70
2023-04-11T22:37:50.238Z,9.20
2023-04-11T22:39:41.792Z,10.70
2023-04-11T22:41:34.053Z,11.30
2023-04-11T22:43:25.669Z,12.20
2023-04-11T22:45:17.246Z,13.50
2023-04-11T22:47:29.675Z,12.20
2023-04-11T22:50:38.982Z,11.30
2023-04-11T22:52:30.890Z,11.50
2023-04-11T22:54:22.563Z,11.10
2023-04-11T22:56:14.330Z,14.70
2023-04-11T22:58:05.943Z,15.50
2023-04-11T22:59:58.600Z,15.60
2023-04-11T23:01:51.358Z,18.90
2023-04-11T23:03:44.144Z,23.10
2023-04-11T23:05:42.446Z,22.70
2023-04-11T23:07:34.532Z,15.40
2023-04-11T23:09:26.591Z,15.50
2023-04-11T23:11:18.453Z,8.50
2023-04-11T23:13:10.186Z,10.20
2023-04-11T23:15:03.428Z,12.50
2023-04-11T23:16:54.807Z,16.00
2023-04-11T23:18:46.664Z,5.80
2023-04-11T23:20:38.387Z,11.00
2023-04-11T23:22:30.215Z,9.10
2023-04-11T23:24:22.098Z,8.30
2023-04-11T23:26:24.437Z,7.60
2023-04-11T23:28:15.955Z,8.20
2023-04-11T23:30:08.110Z,2.70
2023-04-11T23:32:00.033Z,5.30
2023-04-11T23:33:51.399Z,7.30
2023-04-11T23:35:43.110Z,7.10
2023-04-11T23:37:34.748Z,6.30
2023-04-11T23:39:26.966Z,5.50
2023-04-11T23:41:20.341Z,9.40
2023-04-11T23:43:11.703Z,6.70
2023-04-11T23:45:05.957Z,7.50
2023-04-11T23:46:59.983Z,7.70
2023-04-11T23:48:53.522Z,8.30
2023-04-11T23:50:45.036Z,7.80
2023-04-11T23:52:36.804Z,6.40
2023-04-11T23:54:30.499Z,4.50
2023-04-11T23:56:23.232Z,8.90
2023-04-11T23:58:14.847Z,5.50
